Time;durP1;ratioP1;P1;durP2;ratioP2;P2;SDS_P1;SDS_P2;PMS_P1;PMS_P2;Temp;Humidity;BMP_temperature;BMP_pressure;BME280_temperature;BME280_humidity;BME280_pressure;Samples;Min_cycle;Max_cycle;Signal;HPM_P1;HPM_P2
2023/05/16 00:00:08;;;;;;;6.25;3.20;;;16.20;99.90;;;;;;5035935;28;20191;-76
2023/05/16 00:02:41;;;;;;;4.35;3.00;;;16.40;99.90;;;;;;5040702;28;20237;-75
2023/05/16 00:05:13;;;;;;;5.18;3.13;;;16.40;99.90;;;;;;5045880;28;20586;-74
2023/05/16 00:07:46;;;;;;;4.32;3.20;;;16.50;99.90;;;;;;5049251;28;20248;-75
2023/05/16 00:10:17;;;;;;;7.30;3.80;;;16.60;99.90;;;;;;5047248;28;20202;-75
2023/05/16 00:12:50;;;;;;;4.25;3.10;;;16.70;99.90;;;;;;5055821;28;20630;-74
2023/05/16 00:15:22;;;;;;;5.15;2.70;;;16.80;99.90;;;;;;5055353;28;20205;-74
2023/05/16 00:17:57;;;;;;;6.03;3.20;;;16.90;99.90;;;;;;5048087;28;20190;-72
2023/05/16 00:20:28;;;;;;;3.95;3.30;;;17.10;99.90;;;;;;5035381;28;20733;-72
2023/05/16 00:23:00;;;;;;;7.65;3.90;;;17.20;99.90;;;;;;5053222;28;20197;-72
2023/05/16 00:25:31;;;;;;;5.40;3.33;;;17.30;99.90;;;;;;5054032;28;20221;-73
2023/05/16 00:28:03;;;;;;;5.15;3.17;;;17.40;99.90;;;;;;5043950;28;20193;-72
2023/05/16 00:30:34;;;;;;;6.05;3.42;;;17.50;99.90;;;;;;5054050;28;20193;-74
2023/05/16 00:33:07;;;;;;;3.53;3.00;;;17.60;99.90;;;;;;5048736;28;20562;-72
2023/05/16 00:35:38;;;;;;;3.92;2.90;;;17.70;99.90;;;;;;5055261;28;20236;-74
2023/05/16 00:38:09;;;;;;;6.03;3.70;;;17.80;99.90;;;;;;5046893;28;20205;-72
2023/05/16 00:40:40;;;;;;;8.68;3.38;;;17.90;99.90;;;;;;5043448;28;20190;-74
2023/05/16 00:43:11;;;;;;;5.78;3.13;;;18.00;99.90;;;;;;5037942;28;20658;-73
2023/05/16 00:45:43;;;;;;;8.30;3.72;;;18.20;99.90;;;;;;5039389;28;20220;-73
2023/05/16 00:48:17;;;;;;;6.82;3.40;;;18.20;99.90;;;;;;5038014;28;20194;-76
2023/05/16 00:50:48;;;;;;;3.22;2.00;;;18.30;99.90;;;;;;5036489;28;20196;-74
2023/05/16 00:53:19;;;;;;;2.58;1.80;;;18.50;99.90;;;;;;5049609;28;20212;-75
2023/05/16 00:55:50;;;;;;;2.72;1.60;;;18.50;99.90;;;;;;5044393;28;20205;-75
2023/05/16 00:58:23;;;;;;;3.83;1.60;;;18.60;99.90;;;;;;5042770;28;20328;-74
2023/05/16 01:00:54;;;;;;;2.72;1.50;;;18.80;99.90;;;;;;5045108;28;20202;-74
2023/05/16 01:03:27;;;;;;;2.72;1.50;;;18.90;99.90;;;;;;5050590;28;20198;-76
2023/05/16 01:05:59;;;;;;;3.50;1.70;;;19.00;99.90;;;;;;5046767;28;20581;-75
2023/05/16 01:08:30;;;;;;;2.53;1.60;;;19.10;99.90;;;;;;5039617;28;20201;-74
2023/05/16 01:11:10;;;;;;;5.90;2.05;;;19.20;99.90;;;;;;5043736;28;20247;-75
2023/05/16 01:13:50;;;;;;;2.22;2.00;;;19.30;99.90;;;;;;5049429;28;20198;-75
2023/05/16 01:16:28;;;;;;;1.60;1.50;;;19.20;99.90;;;;;;5044074;28;20204;-73
2023/05/16 01:19:12;;;;;;;2.00;1.60;;;19.30;99.90;;;;;;5034871;28;20252;-74
2023/05/16 01:22:01;;;;;;;1.98;1.77;;;19.30;99.90;;;;;;5039557;28;20197;-74
2023/05/16 01:24:40;;;;;;;2.63;1.70;;;19.30;99.90;;;;;;5047607;28;20260;-74
2023/05/16 01:27:14;;;;;;;1.65;1.42;;;19.30;99.90;;;;;;5048386;28;20209;-74
2023/05/16 01:29:45;;;;;;;2.55;1.75;;;19.40;99.90;;;;;;5047602;28;20556;-74
2023/05/16 01:32:16;;;;;;;2.70;1.70;;;19.50;99.90;;;;;;5048646;28;20668;-72
2023/05/16 01:34:47;;;;;;;2.47;1.70;;;19.60;99.90;;;;;;5043629;28;20218;-74
2023/05/16 01:37:21;;;;;;;3.22;1.70;;;19.60;99.90;;;;;;5034079;28;20190;-74
2023/05/16 01:39:58;;;;;;;1.83;1.67;;;19.70;99.90;;;;;;5042312;28;20541;-73
2023/05/16 01:42:38;;;;;;;1.98;1.45;;;19.70;99.90;;;;;;5053968;28;20220;-74
2023/05/16 01:45:14;;;;;;;3.03;1.40;;;19.70;99.90;;;;;;5041452;28;20218;-74
2023/05/16 01:47:50;;;;;;;1.85;1.58;;;19.70;99.90;;;;;;5037751;28;20185;-72
2023/05/16 01:50:22;;;;;;;3.10;1.52;;;19.80;99.90;;;;;;5044544;28;20189;-73
2023/05/16 01:52:57;;;;;;;2.50;1.50;;;19.90;99.90;;;;;;5053731;28;20551;-73
2023/05/16 01:55:38;;;;;;;2.55;1.70;;;19.90;99.90;;;;;;5034139;28;20186;-74
2023/05/16 01:58:11;;;;;;;2.28;1.60;;;20.00;99.90;;;;;;5050318;28;20276;-73
2023/05/16 02:00:43;;;;;;;1.60;1.50;;;20.10;99.90;;;;;;5068522;23;20723;-69
2023/05/16 02:03:14;;;;;;;3.83;1.85;;;20.20;99.90;;;;;;5052945;28;20193;-69
2023/05/16 02:05:46;;;;;;;2.15;1.42;;;20.30;99.90;;;;;;5053549;28;20703;-69
2023/05/16 02:08:18;;;;;;;1.65;1.33;;;20.40;99.90;;;;;;5053962;28;20205;-70
2023/05/16 02:10:49;;;;;;;1.50;1.40;;;20.50;99.90;;;;;;5053126;28;20194;-69
2023/05/16 02:13:22;;;;;;;1.95;1.48;;;20.50;99.90;;;;;;5053333;28;20193;-69
2023/05/16 02:15:53;;;;;;;1.63;1.48;;;20.50;99.90;;;;;;5052573;28;20193;-72
2023/05/16 02:18:24;;;;;;;2.92;1.67;;;20.60;99.90;;;;;;5047762;28;20243;-69
2023/05/16 02:20:55;;;;;;;1.90;1.60;;;20.60;99.90;;;;;;5037738;28;20202;-69
2023/05/16 02:23:27;;;;;;;1.83;1.65;;;20.70;99.90;;;;;;5033986;28;20194;-70
2023/05/16 02:25:58;;;;;;;1.88;1.48;;;20.80;99.90;;;;;;5033332;28;20705;-71
2023/05/16 02:28:31;;;;;;;2.00;1.30;;;20.90;99.90;;;;;;5033116;28;20194;-69
2023/05/16 02:31:03;;;;;;;2.30;1.23;;;20.90;99.90;;;;;;5040468;28;20200;-69
2023/05/16 02:33:34;;;;;;;1.65;1.30;;;20.90;99.90;;;;;;5053245;28;20186;-69
2023/05/16 02:36:05;;;;;;;1.58;1.40;;;21.00;99.90;;;;;;5042650;28;20299;-69
2023/05/16 02:38:36;;;;;;;6.13;4.53;;;21.00;99.90;;;;;;5053276;28;20190;-71
2023/05/16 02:41:07;;;;;;;6.68;5.55;;;21.00;99.90;;;;;;5050084;28;20198;-69
2023/05/16 02:43:40;;;;;;;4.75;2.78;;;21.00;99.90;;;;;;5053351;28;20652;-69
2023/05/16 02:46:24;;;;;;;2.40;2.20;;;21.10;99.90;;;;;;5053092;28;20575;-70
2023/05/16 02:48:55;;;;;;;3.47;2.38;;;21.10;99.90;;;;;;5051093;28;20194;-71
2023/05/16 02:51:27;;;;;;;2.72;1.60;;;21.20;99.90;;;;;;5052691;28;20555;-71
2023/05/16 02:53:58;;;;;;;2.08;1.50;;;21.20;99.90;;;;;;5045529;28;20201;-69
2023/05/16 02:56:30;;;;;;;1.50;1.40;;;21.30;99.90;;;;;;5044375;28;20201;-68
2023/05/16 02:59:03;;;;;;;1.50;1.40;;;21.30;99.90;;;;;;5048037;28;20244;-69
2023/05/16 03:01:34;;;;;;;2.35;1.20;;;21.30;99.90;;;;;;5033202;28;20193;-70
2023/05/16 03:04:05;;;;;;;2.75;1.40;;;21.40;99.90;;;;;;5020952;28;20194;-70
2023/05/16 03:06:36;;;;;;;2.28;1.40;;;21.40;99.90;;;;;;5013101;28;20547;-70
2023/05/16 03:09:08;;;;;;;1.52;1.10;;;21.30;99.90;;;;;;5011000;28;20563;-71
2023/05/16 03:11:39;;;;;;;2.45;1.42;;;21.30;99.90;;;;;;5013367;28;20199;-70
2023/05/16 03:14:12;;;;;;;1.45;1.23;;;21.30;99.90;;;;;;5014686;28;20202;-72
2023/05/16 03:16:43;;;;;;;2.05;1.30;;;21.20;99.90;;;;;;5016123;28;20215;-73
2023/05/16 03:19:15;;;;;;;1.77;1.23;;;21.10;99.90;;;;;;5014242;28;20205;-71
2023/05/16 03:21:46;;;;;;;1.70;1.40;;;21.20;99.90;;;;;;5013488;28;20662;-70
2023/05/16 03:24:21;;;;;;;1.50;1.25;;;21.20;99.90;;;;;;5013191;28;20199;-72
2023/05/16 03:26:52;;;;;;;3.40;1.38;;;21.10;99.90;;;;;;5006924;28;20218;-71
2023/05/16 03:29:25;;;;;;;2.05;1.30;;;21.10;99.90;;;;;;5016436;28;20205;-72
2023/05/16 03:31:56;;;;;;;1.52;1.23;;;21.20;99.90;;;;;;5012885;28;20258;-71
2023/05/16 03:34:28;;;;;;;2.25;1.25;;;21.20;99.90;;;;;;5005731;28;20194;-70
2023/05/16 03:36:59;;;;;;;4.35;1.52;;;21.20;99.90;;;;;;5015451;28;20561;-71
2023/05/16 03:39:30;;;;;;;2.58;1.45;;;21.20;99.90;;;;;;5014547;28;20206;-70
2023/05/16 03:42:01;;;;;;;2.38;1.40;;;21.20;99.90;;;;;;5015871;28;20221;-71
2023/05/16 03:44:34;;;;;;;2.90;1.50;;;21.20;99.90;;;;;;5011672;28;20202;-71
2023/05/16 03:47:05;;;;;;;1.48;1.33;;;21.20;99.90;;;;;;5008652;28;20222;-71
2023/05/16 03:49:36;;;;;;;2.00;1.13;;;21.10;99.90;;;;;;5013462;28;20557;-73
2023/05/16 03:52:07;;;;;;;3.58;1.60;;;21.10;99.90;;;;;;5015525;28;20198;-72
2023/05/16 03:54:38;;;;;;;2.40;1.20;;;21.10;99.90;;;;;;5014682;28;20211;-71
2023/05/16 03:57:09;;;;;;;4.55;1.70;;;21.20;99.90;;;;;;5014090;28;20280;-73
2023/05/16 03:59:43;;;;;;;2.70;1.58;;;21.10;99.90;;;;;;5020041;28;20237;-71
2023/05/16 04:02:14;;;;;;;4.38;1.45;;;21.10;99.90;;;;;;5026097;28;20194;-74
2023/05/16 04:04:45;;;;;;;1.40;1.30;;;21.10;99.90;;;;;;5031053;28;20260;-72
2023/05/16 04:07:16;;;;;;;1.77;1.40;;;21.00;99.90;;;;;;5032454;28;20217;-71
2023/05/16 04:09:47;;;;;;;1.40;1.30;;;21.10;99.90;;;;;;5033865;28;20206;-72
2023/05/16 04:12:19;;;;;;;2.33;1.27;;;21.00;99.90;;;;;;5027306;28;20212;-70
2023/05/16 04:14:52;;;;;;;2.65;1.40;;;21.00;99.90;;;;;;5032112;28;20202;-70
2023/05/16 04:17:23;;;;;;;2.00;1.40;;;21.00;99.90;;;;;;5031260;28;20194;-71
2023/05/16 04:19:54;;;;;;;3.35;1.70;;;21.00;99.90;;;;;;5033389;28;20194;-70
2023/05/16 04:22:25;;;;;;;2.40;1.52;;;21.00;99.90;;;;;;5033232;28;20202;-70
2023/05/16 04:24:56;;;;;;;4.05;1.48;;;20.90;99.90;;;;;;5034823;28;20198;-70
2023/05/16 04:27:27;;;;;;;2.38;1.40;;;20.90;99.90;;;;;;5033605;28;20213;-71
2023/05/16 04:30:00;;;;;;;1.95;1.30;;;20.90;99.90;;;;;;5033250;28;20213;-72
2023/05/16 04:32:34;;;;;;;1.75;1.30;;;20.80;99.90;;;;;;5030102;28;20609;-71
2023/05/16 04:35:06;;;;;;;2.17;1.38;;;20.70;99.90;;;;;;5035135;28;20186;-70
2023/05/16 04:37:37;;;;;;;1.83;1.50;;;20.70;99.90;;;;;;5033179;28;20198;-71
2023/05/16 04:40:08;;;;;;;2.80;1.30;;;20.70;99.90;;;;;;5027517;28;20863;-71
2023/05/16 04:42:39;;;;;;;2.38;1.50;;;20.70;99.90;;;;;;5031417;28;20195;-71
2023/05/16 04:45:13;;;;;;;3.35;1.58;;;20.70;99.90;;;;;;5025270;28;20198;-71
2023/05/16 04:47:44;;;;;;;2.72;1.60;;;20.70;99.90;;;;;;5023762;28;20202;-69
2023/05/16 04:50:16;;;;;;;1.67;1.40;;;20.70;99.90;;;;;;5015444;28;20195;-69
2023/05/16 04:52:47;;;;;;;1.38;1.25;;;20.60;99.90;;;;;;5026513;28;20665;-71
2023/05/16 04:55:19;;;;;;;2.13;1.50;;;20.60;99.90;;;;;;5032556;28;20198;-70
2023/05/16 04:57:50;;;;;;;2.28;1.48;;;20.60;99.90;;;;;;5033797;28;20198;-71
2023/05/16 05:00:23;;;;;;;3.47;1.70;;;20.60;99.90;;;;;;5026049;28;20258;-70
2023/05/16 05:02:54;;;;;;;2.45;1.27;;;20.50;99.90;;;;;;5032079;28;20560;-69
2023/05/16 05:05:25;;;;;;;1.70;1.33;;;20.50;99.90;;;;;;5030359;28;20206;-69
2023/05/16 05:07:56;;;;;;;2.20;1.40;;;20.50;99.90;;;;;;5032416;28;20638;-70
2023/05/16 05:10:28;;;;;;;3.15;1.50;;;20.40;99.90;;;;;;5024990;28;20195;-71
2023/05/16 05:12:59;;;;;;;2.08;1.40;;;20.40;99.90;;;;;;5031607;28;20198;-69
2023/05/16 05:15:32;;;;;;;2.85;1.30;;;20.30;99.90;;;;;;5030382;28;20256;-70
2023/05/16 05:18:03;;;;;;;2.63;1.35;;;20.30;99.90;;;;;;5030218;28;20670;-69
2023/05/16 05:20:34;;;;;;;2.28;1.40;;;20.30;99.90;;;;;;5031295;28;20248;-71
2023/05/16 05:23:05;;;;;;;1.77;1.40;;;20.30;99.90;;;;;;5031592;28;20642;-70
2023/05/16 05:25:37;;;;;;;1.50;1.20;;;20.20;99.90;;;;;;5032408;28;20206;-71
2023/05/16 05:28:08;;;;;;;2.25;1.30;;;20.20;99.90;;;;;;5034115;28;20190;-70
2023/05/16 05:30:41;;;;;;;5.00;1.40;;;20.20;99.90;;;;;;5033168;28;20194;-69
2023/05/16 05:33:18;;;;;;;2.15;1.42;;;20.20;99.90;;;;;;5032982;28;20509;-70
2023/05/16 05:35:52;;;;;;;3.10;1.40;;;20.10;99.90;;;;;;5030587;28;20665;-72
2023/05/16 05:38:23;;;;;;;2.22;1.40;;;20.10;99.90;;;;;;5029814;28;20657;-70
2023/05/16 05:40:55;;;;;;;1.65;1.20;;;20.10;99.90;;;;;;5031721;28;20676;-70
2023/05/16 05:43:26;;;;;;;4.65;1.45;;;20.10;99.90;;;;;;5033519;28;20201;-70
2023/05/16 05:45:59;;;;;;;1.85;1.40;;;20.10;99.90;;;;;;5033506;28;20206;-70
2023/05/16 05:48:31;;;;;;;2.33;1.40;;;20.10;99.90;;;;;;5023118;28;20202;-71
2023/05/16 05:51:02;;;;;;;1.30;1.20;;;20.00;99.90;;;;;;5032136;28;20276;-70
2023/05/16 05:53:33;;;;;;;2.25;1.17;;;20.00;99.90;;;;;;5032333;28;20199;-71
2023/05/16 05:56:04;;;;;;;3.72;1.30;;;20.00;99.90;;;;;;5032910;28;20210;-71
2023/05/16 05:58:35;;;;;;;2.88;1.67;;;19.90;99.90;;;;;;5027206;28;20229;-74
2023/05/16 06:01:08;;;;;;;2.30;1.30;;;19.90;99.90;;;;;;5013957;28;20202;-71
2023/05/16 06:03:39;;;;;;;1.90;1.30;;;19.90;99.90;;;;;;5031482;28;20202;-71
2023/05/16 06:06:11;;;;;;;1.95;1.50;;;19.80;99.90;;;;;;5025699;28;20219;-70
2023/05/16 06:08:42;;;;;;;4.25;1.60;;;19.80;99.90;;;;;;5032099;28;20206;-70
2023/05/16 06:11:13;;;;;;;3.20;1.52;;;19.70;99.90;;;;;;5034024;28;20205;-70
2023/05/16 06:13:44;;;;;;;2.17;1.58;;;19.70;99.90;;;;;;5033496;28;20198;-71
2023/05/16 06:16:17;;;;;;;2.25;1.60;;;19.70;99.90;;;;;;5031649;28;20209;-71
2023/05/16 06:18:48;;;;;;;1.60;1.40;;;19.70;99.90;;;;;;5033092;28;20559;-72
2023/05/16 06:21:19;;;;;;;2.05;1.40;;;19.60;99.90;;;;;;5033319;28;20634;-70
2023/05/16 06:23:50;;;;;;;2.13;1.48;;;19.50;99.90;;;;;;5028998;28;20563;-70
2023/05/16 06:26:21;;;;;;;2.42;1.55;;;19.50;99.90;;;;;;5032664;28;20218;-71
2023/05/16 06:28:52;;;;;;;1.70;1.50;;;19.40;99.90;;;;;;5027556;28;20263;-71
2023/05/16 06:31:25;;;;;;;3.03;1.60;;;19.30;99.90;;;;;;5031712;28;20213;-70
2023/05/16 06:33:56;;;;;;;2.00;1.45;;;19.20;99.90;;;;;;5025000;28;20194;-71
2023/05/16 06:36:27;;;;;;;2.30;1.60;;;19.10;99.90;;;;;;5026793;28;20206;-70
2023/05/16 06:38:59;;;;;;;2.95;1.45;;;19.00;99.90;;;;;;5028212;28;20209;-70
2023/05/16 06:41:30;;;;;;;3.58;1.70;;;19.00;99.90;;;;;;5033179;28;20198;-71
2023/05/16 06:44:01;;;;;;;2.28;1.70;;;18.90;99.90;;;;;;5034508;28;20198;-71
2023/05/16 06:46:34;;;;;;;2.80;1.50;;;18.90;99.90;;;;;;5034202;28;20214;-70
2023/05/16 06:49:05;;;;;;;2.40;1.60;;;18.80;99.90;;;;;;5027388;28;20205;-70
2023/05/16 06:51:36;;;;;;;2.55;1.80;;;18.80;99.90;;;;;;5029657;28;20281;-71
2023/05/16 06:54:07;;;;;;;2.97;1.80;;;18.70;99.90;;;;;;5031648;28;20202;-71
2023/05/16 06:56:38;;;;;;;4.07;2.00;;;18.70;99.90;;;;;;5035427;28;20676;-70
2023/05/16 06:59:09;;;;;;;3.03;1.80;;;18.60;99.90;;;;;;5035715;28;20245;-70
2023/05/16 07:01:43;;;;;;;3.00;1.70;;;18.50;99.90;;;;;;5035331;28;20201;-70
2023/05/16 07:04:14;;;;;;;3.42;1.90;;;18.40;99.90;;;;;;5035966;28;20562;-71
2023/05/16 07:06:45;;;;;;;2.40;1.63;;;18.40;99.90;;;;;;5034762;28;20252;-71
2023/05/16 07:09:16;;;;;;;3.53;1.77;;;18.30;99.90;;;;;;5024515;28;20191;-71
2023/05/16 07:11:47;;;;;;;2.83;1.83;;;18.30;99.90;;;;;;5017089;28;20195;-70
2023/05/16 07:14:18;;;;;;;3.75;1.80;;;18.20;99.90;;;;;;5017203;28;20559;-71
2023/05/16 07:16:51;;;;;;;3.97;1.90;;;18.20;99.90;;;;;;5017228;28;20643;-72
2023/05/16 07:19:22;;;;;;;4.63;1.80;;;18.10;99.90;;;;;;5017204;28;20218;-71
2023/05/16 07:21:53;;;;;;;5.60;1.70;;;18.10;99.90;;;;;;5016932;28;20673;-71
2023/05/16 07:24:24;;;;;;;2.92;2.00;;;18.00;99.90;;;;;;5033630;28;20198;-72
2023/05/16 07:26:55;;;;;;;3.38;1.80;;;18.00;99.90;;;;;;5031561;28;20225;-71
2023/05/16 07:29:27;;;;;;;3.05;1.83;;;17.90;99.90;;;;;;5032065;28;20198;-71
2023/05/16 07:32:00;;;;;;;2.47;1.70;;;17.90;99.90;;;;;;5029809;28;20198;-72
2023/05/16 07:34:31;;;;;;;5.15;2.05;;;17.80;99.90;;;;;;5034651;28;20203;-71
2023/05/16 07:37:02;;;;;;;4.15;1.67;;;17.80;99.90;;;;;;5021552;28;20201;-71
2023/05/16 07:39:33;;;;;;;3.17;1.80;;;17.80;99.90;;;;;;5033956;28;20209;-71
2023/05/16 07:42:04;;;;;;;3.40;2.08;;;17.70;99.90;;;;;;5032101;28;20206;-72
2023/05/16 07:44:35;;;;;;;3.95;2.13;;;17.70;99.90;;;;;;5032515;28;20198;-71
2023/05/16 07:47:08;;;;;;;2.75;1.83;;;17.70;99.90;;;;;;5035875;28;20225;-72
2023/05/16 07:49:39;;;;;;;2.35;1.90;;;17.70;99.90;;;;;;5033575;28;20229;-72
2023/05/16 07:52:10;;;;;;;3.65;2.00;;;17.60;99.90;;;;;;5034182;28;20198;-71
2023/05/16 07:54:41;;;;;;;4.93;2.30;;;17.60;99.90;;;;;;5035251;28;20202;-72
2023/05/16 07:57:12;;;;;;;3.45;2.10;;;17.50;99.90;;;;;;5039543;22;20234;-72
2023/05/16 07:59:44;;;;;;;2.85;2.15;;;17.50;99.90;;;;;;5001854;28;20207;-72
2023/05/16 08:02:17;;;;;;;6.30;2.33;;;17.50;99.90;;;;;;4998375;28;20211;-72
2023/05/16 08:04:49;;;;;;;3.80;2.53;;;17.40;99.90;;;;;;5012135;28;20320;-72
2023/05/16 08:07:20;;;;;;;4.60;2.78;;;17.30;99.90;;;;;;5014166;28;20324;-73
2023/05/16 08:09:51;;;;;;;4.82;2.50;;;17.30;99.90;;;;;;5012792;28;20203;-73
2023/05/16 08:12:22;;;;;;;4.18;2.60;;;17.20;99.90;;;;;;5011481;28;20220;-72
2023/05/16 08:14:53;;;;;;;5.25;2.85;;;17.20;99.90;;;;;;5013369;28;20209;-73
2023/05/16 08:17:26;;;;;;;4.97;2.63;;;17.10;99.90;;;;;;5015695;28;20204;-73
2023/05/16 08:19:58;;;;;;;5.40;3.20;;;17.00;99.90;;;;;;5014863;28;20191;-73
2023/05/16 08:22:29;;;;;;;5.68;3.17;;;17.00;99.90;;;;;;5004754;28;20204;-73
2023/05/16 08:25:00;;;;;;;4.63;3.28;;;17.00;99.90;;;;;;5013172;28;20217;-73
2023/05/16 08:27:32;;;;;;;4.97;3.10;;;16.90;99.90;;;;;;5012355;28;20237;-73
2023/05/16 08:30:03;;;;;;;6.55;3.15;;;16.90;99.90;;;;;;5012716;28;20199;-73
2023/05/16 08:32:36;;;;;;;6.65;3.65;;;16.80;99.90;;;;;;5010799;28;20297;-73
2023/05/16 08:35:08;;;;;;;6.50;3.45;;;16.80;99.90;;;;;;5003432;28;20559;-74
2023/05/16 08:37:40;;;;;;;6.55;3.60;;;16.80;99.90;;;;;;5014726;28;20303;-73
2023/05/16 08:40:14;;;;;;;7.63;3.58;;;16.70;99.90;;;;;;5015195;28;20202;-74
2023/05/16 08:42:45;;;;;;;6.53;3.75;;;16.60;99.90;;;;;;5009423;28;20194;-74
2023/05/16 08:45:16;;;;;;;5.55;3.63;;;16.50;99.90;;;;;;5007601;28;20191;-74
2023/05/16 08:47:55;;;;;;;7.53;4.22;;;16.50;99.90;;;;;;5010172;28;20222;-73
2023/05/16 08:50:28;;;;;;;7.32;4.30;;;16.50;99.90;;;;;;5014749;28;20562;-73
2023/05/16 08:52:59;;;;;;;7.85;4.45;;;16.40;99.90;;;;;;5014826;28;20207;-73
2023/05/16 08:55:30;;;;;;;8.68;3.97;;;16.40;99.90;;;;;;5014118;28;20238;-74
2023/05/16 08:58:02;;;;;;;5.80;3.70;;;16.30;99.90;;;;;;5018116;28;20325;-74
2023/05/16 09:00:33;;;;;;;4.75;3.30;;;16.30;99.90;;;;;;5032369;28;20202;-73
2023/05/16 09:03:07;;;;;;;6.28;3.67;;;16.20;99.90;;;;;;5031306;28;20194;-73
2023/05/16 09:05:38;;;;;;;6.72;3.75;;;16.20;99.90;;;;;;5019334;28;20670;-73
2023/05/16 09:08:10;;;;;;;6.43;3.85;;;16.10;99.90;;;;;;5033952;28;20226;-73
2023/05/16 09:10:41;;;;;;;6.25;3.63;;;16.10;99.90;;;;;;5033341;28;20592;-73
2023/05/16 09:13:12;;;;;;;7.18;4.10;;;16.10;99.90;;;;;;5030278;28;20222;-73
2023/05/16 09:15:44;;;;;;;9.02;3.70;;;16.10;99.90;;;;;;5022449;28;20190;-73
2023/05/16 09:18:17;;;;;;;7.15;3.60;;;16.10;99.90;;;;;;5034307;28;20202;-74
2023/05/16 09:20:52;;;;;;;6.72;3.67;;;16.00;99.90;;;;;;5034431;28;20235;-73
2023/05/16 09:23:27;;;;;;;5.05;3.33;;;16.00;99.90;;;;;;5028611;28;20233;-73
2023/05/16 09:25:59;;;;;;;6.68;3.30;;;15.90;99.90;;;;;;5032208;28;20198;-73
2023/05/16 09:28:30;;;;;;;6.97;3.80;;;15.90;99.90;;;;;;5033658;28;20229;-73
2023/05/16 09:31:02;;;;;;;5.22;3.55;;;15.90;99.90;;;;;;5031497;28;20206;-73
2023/05/16 09:33:35;;;;;;;7.70;4.32;;;15.90;99.90;;;;;;5021289;28;20199;-72
2023/05/16 09:36:07;;;;;;;7.80;3.78;;;15.90;99.90;;;;;;5016969;28;20211;-73
2023/05/16 09:38:39;;;;;;;8.35;3.95;;;15.90;99.90;;;;;;5029421;28;20673;-73
2023/05/16 09:41:12;;;;;;;8.00;4.20;;;15.90;99.90;;;;;;5024460;28;20229;-73
2023/05/16 09:43:44;;;;;;;6.78;4.28;;;15.80;99.90;;;;;;5030810;28;20684;-73
2023/05/16 09:46:18;;;;;;;7.68;4.10;;;15.80;99.90;;;;;;5034178;28;20199;-73
2023/05/16 09:48:53;;;;;;;8.32;4.40;;;15.80;99.90;;;;;;5029722;28;20222;-71
2023/05/16 09:51:25;;;;;;;7.05;3.80;;;15.70;99.90;;;;;;5026726;28;20201;-72
2023/05/16 09:53:57;;;;;;;8.32;4.30;;;15.80;99.90;;;;;;5014388;28;20571;-72
2023/05/16 09:56:28;;;;;;;7.60;4.07;;;15.70;99.90;;;;;;5024662;28;20201;-74
2023/05/16 09:58:59;;;;;;;9.63;3.92;;;15.70;99.90;;;;;;5025552;28;20347;-73
2023/05/16 10:01:31;;;;;;;6.43;3.78;;;15.70;99.90;;;;;;5025869;28;20198;-73
2023/05/16 10:04:04;;;;;;;5.72;3.17;;;15.60;99.90;;;;;;5014169;28;20198;-73
2023/05/16 10:06:35;;;;;;;7.20;3.28;;;15.60;99.90;;;;;;5020494;28;20197;-72
2023/05/16 10:09:07;;;;;;;6.03;3.35;;;15.70;99.90;;;;;;5021306;28;20228;-73
2023/05/16 10:11:38;;;;;;;5.55;3.03;;;15.60;99.90;;;;;;5026221;28;20210;-73
2023/05/16 10:14:11;;;;;;;6.85;2.92;;;15.70;99.90;;;;;;5026040;28;20661;-72
2023/05/16 10:16:46;;;;;;;6.85;2.85;;;15.70;99.90;;;;;;5017194;28;20214;-73
2023/05/16 10:19:21;;;;;;;6.30;2.95;;;15.70;99.90;;;;;;5021068;28;20198;-73
2023/05/16 10:21:57;;;;;;;5.85;3.13;;;15.70;99.90;;;;;;5023045;28;20198;-73
2023/05/16 10:24:33;;;;;;;4.72;2.85;;;15.70;99.90;;;;;;5013896;28;20210;-74
2023/05/16 10:27:04;;;;;;;4.47;2.63;;;15.70;99.90;;;;;;5021687;28;20198;-74
2023/05/16 10:29:36;;;;;;;5.05;2.72;;;15.60;99.90;;;;;;5023397;28;20225;-73
2023/05/16 10:32:09;;;;;;;4.22;2.90;;;15.60;99.90;;;;;;5012790;28;20286;-73
2023/05/16 10:34:43;;;;;;;2.92;2.28;;;15.70;99.90;;;;;;5017884;28;20202;-73
2023/05/16 10:37:14;;;;;;;5.75;2.50;;;15.60;99.90;;;;;;5022381;28;20194;-73
2023/05/16 10:39:45;;;;;;;4.95;2.30;;;15.60;99.90;;;;;;5019410;28;20203;-73
2023/05/16 10:42:17;;;;;;;6.38;2.72;;;15.70;99.90;;;;;;5027815;28;20646;-73
2023/05/16 10:44:48;;;;;;;3.08;1.90;;;15.60;99.90;;;;;;5028298;28;20205;-74
2023/05/16 10:47:22;;;;;;;4.65;2.00;;;15.70;99.90;;;;;;5021794;28;20713;-74
2023/05/16 10:49:55;;;;;;;5.15;2.28;;;15.70;99.90;;;;;;5033092;28;20201;-73
2023/05/16 10:52:36;;;;;;;2.78;1.88;;;15.70;99.90;;;;;;5030057;28;20205;-73
2023/05/16 10:55:07;;;;;;;3.03;2.05;;;15.70;99.90;;;;;;5032169;28;20186;-74
2023/05/16 10:57:38;;;;;;;4.38;1.90;;;15.80;99.90;;;;;;5024161;28;20769;-73
2023/05/16 11:00:23;;;;;;;3.72;2.05;;;15.80;99.90;;;;;;5025591;28;20218;-73
2023/05/16 11:02:54;;;;;;;4.18;2.20;;;15.80;99.90;;;;;;5017156;28;20194;-74
2023/05/16 11:05:29;;;;;;;3.60;2.10;;;15.80;99.90;;;;;;5014453;28;20199;-72
2023/05/16 11:08:07;;;;;;;4.00;2.22;;;15.80;99.90;;;;;;5010308;28;20209;-73
2023/05/16 11:10:38;;;;;;;3.92;2.28;;;15.80;99.90;;;;;;5032848;28;20555;-73
2023/05/16 11:13:11;;;;;;;4.10;1.92;;;15.80;99.90;;;;;;5030873;28;20552;-73
2023/05/16 11:15:42;;;;;;;5.47;2.28;;;15.80;99.90;;;;;;5013576;28;20199;-73
2023/05/16 11:18:17;;;;;;;4.65;2.30;;;15.80;99.90;;;;;;5013150;28;20199;-73
2023/05/16 11:20:55;;;;;;;3.75;2.35;;;15.70;99.90;;;;;;5031569;28;20566;-73
2023/05/16 11:23:27;;;;;;;3.72;2.60;;;15.70;99.90;;;;;;5032967;28;20193;-74
2023/05/16 11:26:00;;;;;;;2.83;2.28;;;15.60;99.90;;;;;;5032767;28;20197;-73
2023/05/16 11:28:31;;;;;;;4.13;2.90;;;15.60;99.90;;;;;;5033179;28;20309;-73
2023/05/16 11:31:04;;;;;;;5.10;3.17;;;15.60;99.90;;;;;;5028400;28;20214;-73
2023/05/16 11:33:35;;;;;;;7.40;4.10;;;15.50;99.90;;;;;;5016996;28;20646;-73
2023/05/16 11:36:10;;;;;;;6.97;3.90;;;15.50;99.90;;;;;;5019135;28;20670;-73
2023/05/16 11:38:42;;;;;;;6.88;4.35;;;15.40;99.90;;;;;;5023737;28;20602;-73
2023/05/16 11:41:15;;;;;;;7.07;4.80;;;15.40;99.90;;;;;;5030728;28;20206;-73
2023/05/16 11:43:47;;;;;;;8.70;4.88;;;15.40;99.90;;;;;;5018630;28;20203;-73
2023/05/16 11:46:18;;;;;;;7.65;4.80;;;15.30;99.90;;;;;;5019071;28;20194;-73
2023/05/16 11:48:50;;;;;;;8.73;4.97;;;15.20;99.90;;;;;;5024229;28;20578;-73
2023/05/16 11:51:24;;;;;;;8.57;5.28;;;15.20;99.90;;;;;;5016041;28;20207;-73
2023/05/16 11:53:55;;;;;;;7.80;4.93;;;15.20;99.90;;;;;;5024981;28;20787;-73
2023/05/16 11:56:26;;;;;;;7.32;4.63;;;15.10;99.90;;;;;;5025824;28;20233;-73
2023/05/16 11:58:57;;;;;;;8.30;5.13;;;15.10;99.90;;;;;;5019454;28;20235;-73
2023/05/16 12:01:33;;;;;;;8.60;5.10;;;15.10;99.90;;;;;;5020950;28;20194;-73
2023/05/16 12:04:04;;;;;;;8.88;5.13;;;15.00;99.90;;;;;;5020710;28;20212;-73
2023/05/16 12:06:37;;;;;;;11.48;5.45;;;15.00;99.90;;;;;;5019099;28;20194;-73
2023/05/16 12:09:09;;;;;;;7.30;4.68;;;15.00;99.90;;;;;;5023694;28;20226;-73
2023/05/16 12:11:41;;;;;;;8.13;4.50;;;15.00;99.90;;;;;;5016117;28;20297;-71
2023/05/16 12:14:13;;;;;;;7.47;4.68;;;14.90;99.90;;;;;;5016083;28;20563;-71
2023/05/16 12:16:45;;;;;;;7.38;4.60;;;14.90;99.90;;;;;;5016277;28;20199;-71
2023/05/16 12:19:16;;;;;;;7.78;4.55;;;14.90;99.90;;;;;;5028185;28;20198;-72
2023/05/16 12:21:49;;;;;;;7.55;4.47;;;14.90;99.90;;;;;;5029277;28;20207;-72
2023/05/16 12:24:20;;;;;;;6.82;4.72;;;14.90;99.90;;;;;;5015840;28;20277;-73
2023/05/16 12:26:56;;;;;;;8.65;4.82;;;14.90;99.90;;;;;;5015799;28;20202;-73
2023/05/16 12:29:28;;;;;;;10.05;5.40;;;14.90;99.90;;;;;;5015816;28;20226;-72
2023/05/16 12:31:59;;;;;;;7.55;4.97;;;14.90;99.90;;;;;;5015703;28;20199;-73
2023/05/16 12:34:31;;;;;;;9.55;4.70;;;14.90;99.90;;;;;;5024390;28;20198;-73
2023/05/16 12:37:05;;;;;;;5.57;4.32;;;14.80;99.90;;;;;;5019717;28;20202;-72
2023/05/16 12:39:41;;;;;;;6.07;3.90;;;14.80;99.90;;;;;;5029703;28;20205;-72
2023/05/16 12:42:13;;;;;;;5.75;3.60;;;14.80;99.90;;;;;;5016540;28;20202;-72
2023/05/16 12:44:48;;;;;;;5.32;3.35;;;14.80;99.90;;;;;;5019230;28;20654;-72
2023/05/16 12:47:20;;;;;;;5.63;3.03;;;14.90;99.90;;;;;;5034438;28;20201;-72
2023/05/16 12:49:51;;;;;;;4.53;2.63;;;15.00;99.90;;;;;;5018301;28;20241;-72
2023/05/16 12:52:24;;;;;;;5.25;2.50;;;15.10;99.90;;;;;;5014833;28;20265;-73
2023/05/16 12:54:55;;;;;;;10.60;2.15;;;15.30;99.90;;;;;;5016353;28;20206;-76
2023/05/16 12:57:28;;;;;;;7.22;2.00;;;15.50;99.90;;;;;;5014349;28;20234;-73
2023/05/16 12:59:59;;;;;;;5.65;2.05;;;15.50;99.90;;;;;;5026342;28;20297;-73
2023/05/16 13:02:30;;;;;;;6.47;2.00;;;15.60;99.90;;;;;;5021077;28;20203;-74
2023/05/16 13:05:01;;;;;;;10.05;2.00;;;15.60;99.90;;;;;;5026665;28;20214;-74
2023/05/16 13:07:34;;;;;;;4.65;1.63;;;15.60;99.90;;;;;;5014810;28;20195;-71
2023/05/16 13:10:09;;;;;;;5.13;1.38;;;15.60;99.90;;;;;;5009386;28;20217;-71